createdAt,value
2023-02-08T00:04:54.502Z,102652.77
2023-02-08T00:09:56.786Z,102656.29
2023-02-08T00:14:59.282Z,102654.34
2023-02-08T00:20:01.568Z,102654.33
2023-02-08T00:25:04.677Z,102654.56
2023-02-08T00:30:07.676Z,102656.47
2023-02-08T00:35:09.755Z,102657.83
2023-02-08T00:40:12.348Z,102659.14
2023-02-08T00:45:14.638Z,102656.88
2023-02-08T00:50:17.227Z,102657.71
2023-02-08T00:55:19.414Z,102652.23
2023-02-08T01:00:22.003Z,102652.11
2023-02-08T01:05:24.301Z,102651.08
2023-02-08T01:10:26.389Z,102656.02
2023-02-08T01:15:28.658Z,102662.00
2023-02-08T01:20:31.456Z,102660.45
2023-02-08T01:25:34.850Z,102665.25
2023-02-08T01:30:37.503Z,102669.33
2023-02-08T01:35:39.757Z,102665.23
2023-02-08T01:40:42.153Z,102662.82
2023-02-08T01:45:44.647Z,102660.42
2023-02-08T01:51:04.735Z,102661.98
2023-02-08T01:56:12.469Z,102661.51
2023-02-08T02:01:15.940Z,102655.77
2023-02-08T02:06:23.953Z,102656.29
2023-02-08T02:11:28.266Z,102655.10
2023-02-08T02:16:30.405Z,102656.42
2023-02-08T02:21:55.320Z,102658.11
2023-02-08T02:27:03.650Z,102655.21
2023-02-08T02:32:33.793Z,102655.24
2023-02-08T02:37:44.778Z,102659.07
2023-02-08T02:43:42.592Z,102661.85
2023-02-08T02:49:12.504Z,102669.01
2023-02-08T02:54:27.080Z,102680.43
2023-02-08T02:59:33.566Z,102688.59
2023-02-08T03:04:36.291Z,102687.05
2023-02-08T03:10:03.024Z,102685.02
2023-02-08T03:15:33.264Z,102696.51
2023-02-08T03:20:42.591Z,102703.65
2023-02-08T03:26:07.953Z,102713.05
2023-02-08T03:31:15.412Z,102721.17
2023-02-08T03:36:25.843Z,102717.60
2023-02-08T03:41:36.637Z,102724.58
2023-02-08T03:46:46.279Z,102726.66
2023-02-08T03:51:49.896Z,102723.23
2023-02-08T03:57:00.987Z,102729.55
2023-02-08T04:02:06.958Z,102734.73
2023-02-08T04:07:09.457Z,102739.77
2023-02-08T04:12:12.248Z,102740.83
2023-02-08T04:17:14.635Z,102746.96
2023-02-08T04:22:16.820Z,102741.27
2023-02-08T04:27:19.005Z,102738.42
2023-02-08T04:32:21.193Z,102739.82
2023-02-08T04:37:23.378Z,102741.27
2023-02-08T04:42:25.976Z,102744.48
2023-02-08T04:47:28.071Z,102742.86
2023-02-08T04:52:30.452Z,102745.05
2023-02-08T04:57:32.628Z,102750.42
2023-02-08T05:02:35.328Z,102749.31
2023-02-08T05:07:37.613Z,102751.75
2023-02-08T05:12:39.790Z,102748.16
2023-02-08T05:17:42.085Z,102748.98
2023-02-08T05:22:44.675Z,102751.59
2023-02-08T05:27:46.958Z,102754.84
2023-02-08T05:32:49.140Z,102766.73
2023-02-08T05:37:51.437Z,102772.27
2023-02-08T05:42:53.709Z,102774.64
2023-02-08T05:47:55.894Z,102763.10
2023-02-08T05:52:58.183Z,102766.37
2023-02-08T05:58:00.568Z,102767.45
2023-02-08T06:03:02.766Z,102777.42
2023-02-08T06:08:06.077Z,102778.52
2023-02-08T06:13:08.350Z,102784.67
2023-02-08T06:18:11.456Z,102790.63
2023-02-08T06:23:13.743Z,102790.98
2023-02-08T06:28:16.410Z,102792.73
2023-02-08T06:33:19.145Z,102796.47
2023-02-08T06:38:21.330Z,102793.04
2023-02-08T06:43:23.708Z,102790.79
2023-02-08T06:48:26.199Z,102789.72
2023-02-08T06:53:28.793Z,102790.42
2023-02-08T06:58:30.901Z,102794.47
2023-02-08T07:03:33.272Z,102807.37
2023-02-08T07:08:35.611Z,102812.61
2023-02-08T07:13:38.456Z,102817.77
2023-02-08T07:18:40.638Z,102817.47
2023-02-08T07:23:43.031Z,102813.16
2023-02-08T07:28:45.220Z,102814.70
2023-02-08T07:33:47.400Z,102811.02
2023-02-08T07:38:49.688Z,102809.20
2023-02-08T07:43:51.870Z,102806.33
2023-02-08T07:48:54.055Z,102805.04
2023-02-08T07:53:56.249Z,102801.09
2023-02-08T07:58:58.530Z,102795.30
2023-02-08T08:04:00.749Z,102796.79
2023-02-08T08:09:03.409Z,102791.56
2023-02-08T08:14:05.593Z,102793.17
2023-02-08T08:19:07.780Z,102797.02
2023-02-08T08:24:10.068Z,102804.85
2023-02-08T08:29:13.069Z,102816.20
2023-02-08T08:34:15.251Z,102823.95
2023-02-08T08:39:17.434Z,102835.91
2023-02-08T08:44:19.822Z,102842.55
2023-02-08T08:49:23.237Z,102838.86
2023-02-08T08:54:25.403Z,102842.27
2023-02-08T08:59:27.918Z,102836.27
2023-02-08T09:04:30.202Z,102844.80
2023-02-08T09:09:32.382Z,102840.73
2023-02-08T09:14:34.665Z,102839.08
2023-02-08T09:19:36.950Z,102821.89
2023-02-08T09:24:39.753Z,102820.64
2023-02-08T09:29:41.935Z,102817.95
2023-02-08T09:34:44.117Z,102820.11
2023-02-08T09:39:46.409Z,102826.23
2023-02-08T09:45:23.832Z,102839.69
2023-02-08T09:50:46.290Z,102850.14
2023-02-08T09:56:02.114Z,102852.13
2023-02-08T10:01:10.753Z,102844.86
2023-02-08T10:06:16.022Z,102837.55
2023-02-08T10:11:39.869Z,102836.18
2023-02-08T10:17:33.574Z,102836.75
2023-02-08T10:23:01.756Z,102836.95
2023-02-08T10:28:12.888Z,102832.83
2023-02-08T10:33:46.675Z,102827.19
2023-02-08T10:38:52.032Z,102816.98
2023-02-08T10:44:10.805Z,102820.47
2023-02-08T10:49:28.655Z,102815.28
2023-02-08T10:54:30.841Z,102811.80
2023-02-08T10:59:39.267Z,102809.79
2023-02-08T11:04:59.108Z,102809.58
2023-02-08T11:10:22.857Z,102809.43
2023-02-08T11:15:38.459Z,102808.66
2023-02-08T11:20:41.253Z,102804.36
2023-02-08T11:25:43.615Z,102796.59
2023-02-08T11:30:59.516Z,102788.23
2023-02-08T11:36:05.462Z,102787.86
2023-02-08T11:41:15.669Z,102784.41
2023-02-08T11:46:24.346Z,102777.61
2023-02-08T11:51:31.027Z,102765.52
2023-02-08T11:56:34.124Z,102762.81
2023-02-08T12:01:41.507Z,102767.86
2023-02-08T12:06:59.469Z,102769.53
2023-02-08T12:12:25.990Z,102779.84
2023-02-08T12:17:48.403Z,102781.30
2023-02-08T12:23:09.120Z,102792.80
2023-02-08T12:28:23.026Z,102786.35
2023-02-08T12:33:44.607Z,102780.02
2023-02-08T12:39:35.620Z,102773.72
2023-02-08T12:45:22.594Z,102772.41
2023-02-08T12:50:33.237Z,102765.45
2023-02-08T12:55:40.462Z,102761.52
2023-02-08T13:00:44.879Z,102755.04
2023-02-08T13:06:01.612Z,102757.77
2023-02-08T13:11:20.811Z,102754.65
2023-02-08T13:16:30.856Z,102751.47
2023-02-08T13:21:41.459Z,102745.35
2023-02-08T13:26:43.973Z,102744.40
2023-02-08T13:31:59.810Z,102744.90
2023-02-08T13:37:13.565Z,102741.47
2023-02-08T13:42:31.465Z,102741.02
2023-02-08T13:47:48.125Z,102741.27
2023-02-08T13:52:50.560Z,102736.23
2023-02-08T13:57:55.691Z,102726.09
2023-02-08T14:03:29.444Z,102721.55
2023-02-08T14:09:12.832Z,102722.11
2023-02-08T14:14:26.904Z,102719.94
2023-02-08T14:19:31.284Z,102722.81
2023-02-08T14:24:43.338Z,102713.89
2023-02-08T14:30:13.490Z,102707.96
2023-02-08T14:35:15.446Z,102705.89
2023-02-08T14:40:22.339Z,102703.66
2023-02-08T14:45:32.767Z,102698.05
2023-02-08T14:50:42.284Z,102695.66
2023-02-08T14:56:06.140Z,102693.02
2023-02-08T15:01:17.414Z,102698.34
2023-02-08T15:06:59.713Z,102690.01
2023-02-08T15:12:12.298Z,102693.20
2023-02-08T15:17:29.850Z,102692.88
2023-02-08T15:22:37.418Z,102699.73
2023-02-08T15:27:48.086Z,102695.91
2023-02-08T15:32:50.251Z,102690.42
2023-02-08T15:37:54.444Z,102682.92
2023-02-08T15:43:04.331Z,102690.86
2023-02-08T15:48:07.302Z,102687.99
2023-02-08T15:53:14.031Z,102684.53
2023-02-08T15:58:34.139Z,102687.15
2023-02-08T16:03:39.608Z,102686.33
2023-02-08T16:08:43.411Z,102682.61
2023-02-08T16:13:49.586Z,102671.56
2023-02-08T16:19:03.095Z,102663.02
2023-02-08T16:24:22.626Z,102658.81
2023-02-08T16:29:31.069Z,102655.60
2023-02-08T16:34:37.392Z,102644.86
2023-02-08T16:39:48.468Z,102646.02
2023-02-08T16:45:20.481Z,102642.20
2023-02-08T16:50:26.461Z,102640.83
2023-02-08T16:55:32.713Z,102634.79
2023-02-08T17:00:35.262Z,102629.27
2023-02-08T17:05:40.049Z,102627.08
2023-02-08T17:10:43.752Z,102622.88
2023-02-08T17:15:48.502Z,102625.94
2023-02-08T17:20:57.522Z,102626.52
2023-02-08T17:26:00.597Z,102628.60
2023-02-08T17:31:03.806Z,102633.20
2023-02-08T17:36:08.452Z,102632.33
2023-02-08T17:41:20.482Z,102628.49
2023-02-08T17:46:27.532Z,102621.95
2023-02-08T17:51:32.448Z,102619.52
2023-02-08T17:56:35.956Z,102615.73
2023-02-08T18:01:40.485Z,102615.66
2023-02-08T18:06:43.748Z,102609.41
2023-02-08T18:11:47.601Z,102602.67
2023-02-08T18:16:51.520Z,102603.08
2023-02-08T18:21:55.195Z,102612.92
2023-02-08T18:26:59.927Z,102612.54
2023-02-08T18:32:05.493Z,102608.02
2023-02-08T18:37:10.451Z,102604.44
2023-02-08T18:53:50.422Z,102595.92
2023-02-08T18:58:59.361Z,102592.63
2023-02-08T19:04:02.921Z,102593.64
2023-02-08T19:09:07.152Z,102588.60
2023-02-08T19:14:10.973Z,102587.00
2023-02-08T19:19:13.164Z,102584.61
2023-02-08T19:24:15.583Z,102573.54
2023-02-08T19:29:22.352Z,102567.11
2023-02-08T19:34:24.736Z,102555.52
2023-02-08T19:39:27.560Z,102551.19
2023-02-08T19:44:30.733Z,102560.45
2023-02-08T19:49:33.132Z,102553.48
2023-02-08T19:54:35.318Z,102553.58
2023-02-08T19:59:37.607Z,102551.80
2023-02-08T20:04:40.816Z,102548.83
2023-02-08T20:09:42.998Z,102537.56
2023-02-08T20:14:45.196Z,102523.21
2023-02-08T20:19:47.572Z,102514.98
2023-02-08T20:24:49.855Z,102506.59
2023-02-08T20:29:55.110Z,102512.36
2023-02-08T20:36:00.889Z,102503.50
2023-02-08T20:41:11.371Z,102496.62
2023-02-08T20:46:18.236Z,102498.35
2023-02-08T20:51:22.392Z,102494.92
2023-02-08T20:56:27.962Z,102497.15
2023-02-08T21:01:31.125Z,102486.95
2023-02-08T21:06:36.137Z,102487.73
2023-02-08T21:11:38.820Z,102490.45
2023-02-08T21:16:41.588Z,102482.21
2023-02-08T21:21:43.877Z,102473.42
2023-02-08T21:26:46.803Z,102472.42
2023-02-08T21:31:53.069Z,102470.52
2023-02-08T21:36:55.871Z,102467.09
2023-02-08T21:41:58.182Z,102460.45
2023-02-08T21:47:02.393Z,102456.85
2023-02-08T21:52:23.628Z,102453.17
2023-02-08T21:57:28.474Z,102445.17
2023-02-08T22:02:30.767Z,102433.55
2023-02-08T22:07:54.563Z,102429.09
2023-02-08T22:12:57.383Z,102429.02
2023-02-08T22:18:02.091Z,102427.13
2023-02-08T22:23:05.399Z,102427.23
2023-02-08T22:28:07.826Z,102421.95
2023-02-08T22:33:11.244Z,102421.57
2023-02-08T22:38:13.515Z,102411.27
2023-02-08T22:43:16.085Z,102405.59
2023-02-08T22:48:18.272Z,102394.17
2023-02-08T22:53:20.879Z,102393.34
2023-02-08T22:58:23.465Z,102387.11
2023-02-08T23:03:25.953Z,102381.30
2023-02-08T23:08:30.181Z,102376.61
2023-02-08T23:13:33.798Z,102364.48
2023-02-08T23:18:36.298Z,102353.30
2023-02-08T23:23:39.594Z,102348.35
2023-02-08T23:28:41.997Z,102355.35
2023-02-08T23:33:44.681Z,102349.75
2023-02-08T23:38:48.505Z,102339.60
2023-02-08T23:43:52.600Z,102333.13
2023-02-08T23:48:55.434Z,102330.52
2023-02-08T23:53:57.745Z,102320.07
2023-02-08T23:59:00.648Z,102320.91
